sensor_id;sensor_type;location;lat;lon;timestamp;P1;durP1;ratioP1;P2;durP2;ratioP2
12181;SDS011;6154;51.550;12.138;2023-04-01T00:00:11;2.00;;;0.45;;
12181;SDS011;6154;51.550;12.138;2023-04-01T00:02:46;0.70;;;0.50;;
12181;SDS011;6154;51.550;12.138;2023-04-01T00:05:16;1.45;;;0.47;;
12181;SDS011;6154;51.550;12.138;2023-04-01T00:07:47;1.85;;;0.65;;
12181;SDS011;6154;51.550;12.138;2023-04-01T00:10:20;2.50;;;0.68;;
12181;SDS011;6154;51.550;12.138;2023-04-01T00:12:50;1.55;;;0.37;;
12181;SDS011;6154;51.550;12.138;2023-04-01T00:15:21;1.45;;;0.40;;
12181;SDS011;6154;51.550;12.138;2023-04-01T00:17:54;1.35;;;0.45;;
12181;SDS011;6154;51.550;12.138;2023-04-01T00:20:24;0.93;;;0.32;;
12181;SDS011;6154;51.550;12.138;2023-04-01T00:22:57;0.60;;;0.37;;
12181;SDS011;6154;51.550;12.138;2023-04-01T00:25:29;0.40;;;0.40;;
12181;SDS011;6154;51.550;12.138;2023-04-01T00:28:01;0.40;;;0.40;;
12181;SDS011;6154;51.550;12.138;2023-04-01T00:30:30;2.55;;;0.30;;
12181;SDS011;6154;51.550;12.138;2023-04-01T00:33:01;0.60;;;0.40;;
12181;SDS011;6154;51.550;12.138;2023-04-01T00:35:31;0.95;;;0.50;;
12181;SDS011;6154;51.550;12.138;2023-04-01T00:38:03;0.50;;;0.50;;
12181;SDS011;6154;51.550;12.138;2023-04-01T00:40:37;2.10;;;0.73;;
12181;SDS011;6154;51.550;12.138;2023-04-01T00:43:15;0.30;;;0.30;;
12181;SDS011;6154;51.550;12.138;2023-04-01T00:45:49;2.35;;;0.50;;
12181;SDS011;6154;51.550;12.138;2023-04-01T00:48:22;3.17;;;0.60;;
12181;SDS011;6154;51.550;12.138;2023-04-01T00:50:58;1.10;;;0.75;;
12181;SDS011;6154;51.550;12.138;2023-04-01T00:53:34;1.67;;;0.62;;
12181;SDS011;6154;51.550;12.138;2023-04-01T00:56:07;0.57;;;0.50;;
12181;SDS011;6154;51.550;12.138;2023-04-01T00:58:43;1.02;;;0.40;;
12181;SDS011;6154;51.550;12.138;2023-04-01T01:01:18;0.62;;;0.52;;
12181;SDS011;6154;51.550;12.138;2023-04-01T01:03:55;2.15;;;0.55;;
12181;SDS011;6154;51.550;12.138;2023-04-01T01:06:33;1.02;;;0.65;;
12181;SDS011;6154;51.550;12.138;2023-04-01T01:09:12;0.75;;;0.40;;
12181;SDS011;6154;51.550;12.138;2023-04-01T01:11:57;3.12;;;0.50;;
12181;SDS011;6154;51.550;12.138;2023-04-01T01:14:48;0.95;;;0.55;;
12181;SDS011;6154;51.550;12.138;2023-04-01T01:17:28;2.92;;;0.60;;
12181;SDS011;6154;51.550;12.138;2023-04-01T01:20:10;1.42;;;0.73;;
12181;SDS011;6154;51.550;12.138;2023-04-01T01:22:56;2.28;;;0.50;;
12181;SDS011;6154;51.550;12.138;2023-04-01T01:25:53;2.35;;;0.52;;
12181;SDS011;6154;51.550;12.138;2023-04-01T01:28:39;0.70;;;0.60;;
12181;SDS011;6154;51.550;12.138;2023-04-01T01:31:16;3.28;;;0.50;;
12181;SDS011;6154;51.550;12.138;2023-04-01T01:33:51;0.40;;;0.32;;
12181;SDS011;6154;51.550;12.138;2023-04-01T01:36:32;0.88;;;0.50;;
12181;SDS011;6154;51.550;12.138;2023-04-01T01:39:03;1.05;;;0.40;;
12181;SDS011;6154;51.550;12.138;2023-04-01T01:41:33;2.85;;;0.68;;
12181;SDS011;6154;51.550;12.138;2023-04-01T01:44:03;1.73;;;0.30;;
12181;SDS011;6154;51.550;12.138;2023-04-01T01:46:36;1.95;;;0.50;;
12181;SDS011;6154;51.550;12.138;2023-04-01T01:49:06;3.80;;;0.60;;
12181;SDS011;6154;51.550;12.138;2023-04-01T01:51:39;0.73;;;0.40;;
12181;SDS011;6154;51.550;12.138;2023-04-01T01:54:11;0.95;;;0.50;;
12181;SDS011;6154;51.550;12.138;2023-04-01T01:56:41;0.30;;;0.30;;
12181;SDS011;6154;51.550;12.138;2023-04-01T01:59:12;2.65;;;0.60;;
12181;SDS011;6154;51.550;12.138;2023-04-01T02:01:45;1.00;;;0.30;;
12181;SDS011;6154;51.550;12.138;2023-04-01T02:04:17;0.80;;;0.60;;
12181;SDS011;6154;51.550;12.138;2023-04-01T02:06:50;2.50;;;0.82;;
12181;SDS011;6154;51.550;12.138;2023-04-01T02:09:24;1.98;;;0.70;;
12181;SDS011;6154;51.550;12.138;2023-04-01T02:11:54;3.42;;;0.82;;
12181;SDS011;6154;51.550;12.138;2023-04-01T02:14:26;0.75;;;0.50;;
12181;SDS011;6154;51.550;12.138;2023-04-01T02:17:02;1.48;;;0.50;;
12181;SDS011;6154;51.550;12.138;2023-04-01T02:19:35;0.40;;;0.40;;
12181;SDS011;6154;51.550;12.138;2023-04-01T02:22:10;3.62;;;0.60;;
12181;SDS011;6154;51.550;12.138;2023-04-01T02:24:42;1.23;;;0.68;;
12181;SDS011;6154;51.550;12.138;2023-04-01T02:27:12;0.47;;;0.47;;
12181;SDS011;6154;51.550;12.138;2023-04-01T02:29:40;0.93;;;0.80;;
12181;SDS011;6154;51.550;12.138;2023-04-01T02:32:08;2.10;;;0.77;;
12181;SDS011;6154;51.550;12.138;2023-04-01T02:34:38;2.12;;;0.70;;
12181;SDS011;6154;51.550;12.138;2023-04-01T02:37:06;1.75;;;0.70;;
12181;SDS011;6154;51.550;12.138;2023-04-01T02:39:37;0.30;;;0.30;;
12181;SDS011;6154;51.550;12.138;2023-04-01T02:42:05;0.55;;;0.50;;
12181;SDS011;6154;51.550;12.138;2023-04-01T02:44:33;1.95;;;0.80;;
12181;SDS011;6154;51.550;12.138;2023-04-01T02:47:02;1.35;;;0.70;;
12181;SDS011;6154;51.550;12.138;2023-04-01T02:49:31;1.83;;;0.70;;
12181;SDS011;6154;51.550;12.138;2023-04-01T02:51:59;0.68;;;0.60;;
12181;SDS011;6154;51.550;12.138;2023-04-01T02:54:29;1.40;;;0.80;;
12181;SDS011;6154;51.550;12.138;2023-04-01T02:56:57;2.65;;;0.50;;
12181;SDS011;6154;51.550;12.138;2023-04-01T02:59:25;1.12;;;0.88;;
12181;SDS011;6154;51.550;12.138;2023-04-01T03:01:53;0.60;;;0.60;;
12181;SDS011;6154;51.550;12.138;2023-04-01T03:04:21;1.83;;;0.70;;
12181;SDS011;6154;51.550;12.138;2023-04-01T03:06:49;1.08;;;0.88;;
12181;SDS011;6154;51.550;12.138;2023-04-01T03:09:18;3.22;;;0.93;;
12181;SDS011;6154;51.550;12.138;2023-04-01T03:11:47;5.22;;;0.98;;
12181;SDS011;6154;51.550;12.138;2023-04-01T03:14:16;2.03;;;0.80;;
12181;SDS011;6154;51.550;12.138;2023-04-01T03:16:44;1.85;;;0.75;;
12181;SDS011;6154;51.550;12.138;2023-04-01T03:19:12;1.52;;;0.90;;
12181;SDS011;6154;51.550;12.138;2023-04-01T03:21:41;1.48;;;0.60;;
12181;SDS011;6154;51.550;12.138;2023-04-01T03:24:09;1.60;;;0.70;;
12181;SDS011;6154;51.550;12.138;2023-04-01T03:26:37;1.42;;;0.90;;
12181;SDS011;6154;51.550;12.138;2023-04-01T03:29:07;2.70;;;0.90;;
12181;SDS011;6154;51.550;12.138;2023-04-01T03:31:35;0.77;;;0.68;;
12181;SDS011;6154;51.550;12.138;2023-04-01T03:34:03;0.90;;;0.68;;
12181;SDS011;6154;51.550;12.138;2023-04-01T03:36:31;2.20;;;0.65;;
12181;SDS011;6154;51.550;12.138;2023-04-01T03:39:00;2.12;;;0.77;;
12181;SDS011;6154;51.550;12.138;2023-04-01T03:41:30;2.03;;;0.50;;
12181;SDS011;6154;51.550;12.138;2023-04-01T03:43:58;3.22;;;0.80;;
12181;SDS011;6154;51.550;12.138;2023-04-01T03:46:28;1.20;;;0.60;;
12181;SDS011;6154;51.550;12.138;2023-04-01T03:48:57;1.05;;;0.50;;
12181;SDS011;6154;51.550;12.138;2023-04-01T03:51:25;3.60;;;1.20;;
12181;SDS011;6154;51.550;12.138;2023-04-01T03:53:54;1.17;;;0.75;;
12181;SDS011;6154;51.550;12.138;2023-04-01T03:56:22;1.00;;;0.60;;
12181;SDS011;6154;51.550;12.138;2023-04-01T03:58:50;0.62;;;0.62;;
12181;SDS011;6154;51.550;12.138;2023-04-01T04:01:19;1.95;;;0.70;;
12181;SDS011;6154;51.550;12.138;2023-04-01T04:03:50;2.72;;;0.80;;
12181;SDS011;6154;51.550;12.138;2023-04-01T04:06:20;0.68;;;0.60;;
12181;SDS011;6154;51.550;12.138;2023-04-01T04:08:49;3.08;;;0.73;;
12181;SDS011;6154;51.550;12.138;2023-04-01T04:11:18;0.50;;;0.50;;
12181;SDS011;6154;51.550;12.138;2023-04-01T04:13:48;4.97;;;1.35;;
12181;SDS011;6154;51.550;12.138;2023-04-01T04:16:16;2.30;;;1.42;;
12181;SDS011;6154;51.550;12.138;2023-04-01T04:18:45;2.62;;;1.35;;
12181;SDS011;6154;51.550;12.138;2023-04-01T04:21:15;2.95;;;1.80;;
12181;SDS011;6154;51.550;12.138;2023-04-01T04:23:43;1.92;;;1.60;;
12181;SDS011;6154;51.550;12.138;2023-04-01T04:26:13;2.08;;;1.10;;
12181;SDS011;6154;51.550;12.138;2023-04-01T04:28:44;1.37;;;1.00;;
12181;SDS011;6154;51.550;12.138;2023-04-01T04:31:13;1.85;;;1.00;;
12181;SDS011;6154;51.550;12.138;2023-04-01T04:33:46;2.35;;;1.02;;
12181;SDS011;6154;51.550;12.138;2023-04-01T04:36:16;3.10;;;1.27;;
12181;SDS011;6154;51.550;12.138;2023-04-01T04:38:45;4.62;;;1.45;;
12181;SDS011;6154;51.550;12.138;2023-04-01T04:41:13;2.03;;;1.12;;
12181;SDS011;6154;51.550;12.138;2023-04-01T04:43:48;0.90;;;0.85;;
12181;SDS011;6154;51.550;12.138;2023-04-01T04:46:18;3.15;;;1.33;;
12181;SDS011;6154;51.550;12.138;2023-04-01T04:48:48;1.10;;;0.85;;
12181;SDS011;6154;51.550;12.138;2023-04-01T04:51:18;2.92;;;1.70;;
12181;SDS011;6154;51.550;12.138;2023-04-01T04:53:47;2.65;;;1.27;;
12181;SDS011;6154;51.550;12.138;2023-04-01T04:56:19;1.95;;;1.40;;
12181;SDS011;6154;51.550;12.138;2023-04-01T04:58:48;3.22;;;1.37;;
12181;SDS011;6154;51.550;12.138;2023-04-01T05:01:16;5.45;;;1.35;;
12181;SDS011;6154;51.550;12.138;2023-04-01T05:03:45;1.83;;;1.27;;
12181;SDS011;6154;51.550;12.138;2023-04-01T05:06:14;2.05;;;1.25;;
12181;SDS011;6154;51.550;12.138;2023-04-01T05:08:45;1.67;;;1.20;;
12181;SDS011;6154;51.550;12.138;2023-04-01T05:11:14;3.80;;;1.33;;
12181;SDS011;6154;51.550;12.138;2023-04-01T05:13:44;4.87;;;1.12;;
12181;SDS011;6154;51.550;12.138;2023-04-01T05:16:13;2.95;;;0.88;;
12181;SDS011;6154;51.550;12.138;2023-04-01T05:18:44;1.92;;;0.88;;
12181;SDS011;6154;51.550;12.138;2023-04-01T05:21:13;1.45;;;0.80;;
12181;SDS011;6154;51.550;12.138;2023-04-01T05:23:42;3.83;;;1.05;;
12181;SDS011;6154;51.550;12.138;2023-04-01T05:26:13;2.45;;;0.80;;
12181;SDS011;6154;51.550;12.138;2023-04-01T05:28:42;2.03;;;0.77;;
12181;SDS011;6154;51.550;12.138;2023-04-01T05:31:10;1.60;;;0.80;;
12181;SDS011;6154;51.550;12.138;2023-04-01T05:33:38;3.20;;;0.70;;
12181;SDS011;6154;51.550;12.138;2023-04-01T05:36:08;0.98;;;0.70;;
12181;SDS011;6154;51.550;12.138;2023-04-01T05:38:37;1.23;;;0.80;;
12181;SDS011;6154;51.550;12.138;2023-04-01T05:41:07;3.42;;;1.12;;
12181;SDS011;6154;51.550;12.138;2023-04-01T05:43:36;1.92;;;0.90;;
12181;SDS011;6154;51.550;12.138;2023-04-01T05:46:06;1.48;;;0.80;;
12181;SDS011;6154;51.550;12.138;2023-04-01T05:48:35;1.80;;;0.50;;
12181;SDS011;6154;51.550;12.138;2023-04-01T05:51:04;1.77;;;0.80;;
12181;SDS011;6154;51.550;12.138;2023-04-01T05:53:32;3.05;;;0.73;;
12181;SDS011;6154;51.550;12.138;2023-04-01T05:56:03;0.40;;;0.40;;
12181;SDS011;6154;51.550;12.138;2023-04-01T05:58:36;2.08;;;0.73;;
12181;SDS011;6154;51.550;12.138;2023-04-01T06:01:04;2.10;;;0.80;;
12181;SDS011;6154;51.550;12.138;2023-04-01T06:03:40;1.17;;;0.60;;
12181;SDS011;6154;51.550;12.138;2023-04-01T06:06:10;2.78;;;0.93;;
12181;SDS011;6154;51.550;12.138;2023-04-01T06:08:42;3.65;;;0.70;;
12181;SDS011;6154;51.550;12.138;2023-04-01T06:11:19;2.10;;;0.50;;
12181;SDS011;6154;51.550;12.138;2023-04-01T06:14:01;2.85;;;0.70;;
12181;SDS011;6154;51.550;12.138;2023-04-01T06:16:40;0.75;;;0.62;;
12181;SDS011;6154;51.550;12.138;2023-04-01T06:19:26;2.28;;;0.52;;
12181;SDS011;6154;51.550;12.138;2023-04-01T06:22:08;1.30;;;0.50;;
12181;SDS011;6154;51.550;12.138;2023-04-01T06:24:55;1.10;;;0.57;;
12181;SDS011;6154;51.550;12.138;2023-04-01T06:27:37;1.23;;;0.65;;
12181;SDS011;6154;51.550;12.138;2023-04-01T06:33:41;1.23;;;0.70;;
12181;SDS011;6154;51.550;12.138;2023-04-01T06:39:22;0.60;;;0.40;;
12181;SDS011;6154;51.550;12.138;2023-04-01T06:42:04;0.73;;;0.50;;
12181;SDS011;6154;51.550;12.138;2023-04-01T06:44:42;2.03;;;1.00;;
12181;SDS011;6154;51.550;12.138;2023-04-01T06:47:37;1.12;;;0.80;;
12181;SDS011;6154;51.550;12.138;2023-04-01T06:50:19;0.40;;;0.40;;
12181;SDS011;6154;51.550;12.138;2023-04-01T06:52:59;1.90;;;0.70;;
12181;SDS011;6154;51.550;12.138;2023-04-01T06:55:47;2.70;;;0.55;;
12181;SDS011;6154;51.550;12.138;2023-04-01T06:58:22;1.15;;;0.30;;
12181;SDS011;6154;51.550;12.138;2023-04-01T07:00:54;2.72;;;0.55;;
12181;SDS011;6154;51.550;12.138;2023-04-01T07:03:29;0.57;;;0.57;;
12181;SDS011;6154;51.550;12.138;2023-04-01T07:06:02;0.60;;;0.45;;
12181;SDS011;6154;51.550;12.138;2023-04-01T07:08:33;1.55;;;0.50;;
12181;SDS011;6154;51.550;12.138;2023-04-01T07:11:05;0.32;;;0.32;;
12181;SDS011;6154;51.550;12.138;2023-04-01T07:13:57;3.28;;;0.47;;
12181;SDS011;6154;51.550;12.138;2023-04-01T07:16:29;1.45;;;0.28;;
12181;SDS011;6154;51.550;12.138;2023-04-01T07:19:03;2.05;;;0.40;;
12181;SDS011;6154;51.550;12.138;2023-04-01T07:21:39;0.32;;;0.32;;
12181;SDS011;6154;51.550;12.138;2023-04-01T07:24:11;0.60;;;0.40;;
12181;SDS011;6154;51.550;12.138;2023-04-01T07:26:45;0.40;;;0.40;;
12181;SDS011;6154;51.550;12.138;2023-04-01T07:29:15;0.57;;;0.32;;
12181;SDS011;6154;51.550;12.138;2023-04-01T07:34:59;1.35;;;0.20;;
12181;SDS011;6154;51.550;12.138;2023-04-01T07:37:35;0.30;;;0.20;;
12181;SDS011;6154;51.550;12.138;2023-04-01T07:40:17;0.55;;;0.20;;
12181;SDS011;6154;51.550;12.138;2023-04-01T07:45:52;0.30;;;0.30;;
12181;SDS011;6154;51.550;12.138;2023-04-01T07:48:28;1.60;;;0.47;;
12181;SDS011;6154;51.550;12.138;2023-04-01T07:51:06;2.30;;;0.45;;
12181;SDS011;6154;51.550;12.138;2023-04-01T07:53:42;1.00;;;0.57;;
12181;SDS011;6154;51.550;12.138;2023-04-01T07:56:15;0.95;;;0.47;;
12181;SDS011;6154;51.550;12.138;2023-04-01T07:58:52;1.52;;;0.40;;
12181;SDS011;6154;51.550;12.138;2023-04-01T08:01:33;1.55;;;0.40;;
12181;SDS011;6154;51.550;12.138;2023-04-01T08:04:18;0.70;;;0.40;;
12181;SDS011;6154;51.550;12.138;2023-04-01T08:06:58;1.90;;;0.37;;
12181;SDS011;6154;51.550;12.138;2023-04-01T08:09:37;0.82;;;0.30;;
12181;SDS011;6154;51.550;12.138;2023-04-01T08:12:18;1.35;;;0.40;;
12181;SDS011;6154;51.550;12.138;2023-04-01T08:15:00;1.40;;;0.43;;
12181;SDS011;6154;51.550;12.138;2023-04-01T08:17:46;0.20;;;0.20;;
12181;SDS011;6154;51.550;12.138;2023-04-01T08:20:25;2.50;;;0.40;;
12181;SDS011;6154;51.550;12.138;2023-04-01T08:23:00;0.98;;;0.30;;
12181;SDS011;6154;51.550;12.138;2023-04-01T08:25:36;0.10;;;0.10;;
12181;SDS011;6154;51.550;12.138;2023-04-01T08:28:09;0.52;;;0.22;;
12181;SDS011;6154;51.550;12.138;2023-04-01T08:30:45;1.75;;;0.30;;
12181;SDS011;6154;51.550;12.138;2023-04-01T08:33:26;0.75;;;0.30;;
12181;SDS011;6154;51.550;12.138;2023-04-01T08:35:58;0.20;;;0.20;;
12181;SDS011;6154;51.550;12.138;2023-04-01T08:38:31;1.85;;;0.30;;
12181;SDS011;6154;51.550;12.138;2023-04-01T08:41:16;0.10;;;0.10;;
12181;SDS011;6154;51.550;12.138;2023-04-01T08:44:07;0.43;;;0.17;;
12181;SDS011;6154;51.550;12.138;2023-04-01T08:50:17;1.02;;;0.30;;
12181;SDS011;6154;51.550;12.138;2023-04-01T08:52:58;0.50;;;0.20;;
12181;SDS011;6154;51.550;12.138;2023-04-01T08:55:34;0.45;;;0.28;;
12181;SDS011;6154;51.550;12.138;2023-04-01T08:58:32;1.10;;;0.20;;
12181;SDS011;6154;51.550;12.138;2023-04-01T09:04:33;1.17;;;0.50;;
12181;SDS011;6154;51.550;12.138;2023-04-01T09:07:27;0.25;;;0.22;;
12181;SDS011;6154;51.550;12.138;2023-04-01T09:10:15;1.30;;;0.20;;
12181;SDS011;6154;51.550;12.138;2023-04-01T09:13:00;1.25;;;0.20;;
12181;SDS011;6154;51.550;12.138;2023-04-01T09:21:54;0.88;;;0.30;;
12181;SDS011;6154;51.550;12.138;2023-04-01T09:28:05;1.98;;;0.52;;
12181;SDS011;6154;51.550;12.138;2023-04-01T09:30:48;0.52;;;0.30;;
12181;SDS011;6154;51.550;12.138;2023-04-01T09:33:54;1.08;;;0.45;;
12181;SDS011;6154;51.550;12.138;2023-04-01T09:36:55;1.35;;;0.43;;
12181;SDS011;6154;51.550;12.138;2023-04-01T09:39:36;0.45;;;0.35;;
12181;SDS011;6154;51.550;12.138;2023-04-01T09:42:15;0.90;;;0.20;;
12181;SDS011;6154;51.550;12.138;2023-04-01T09:44:59;2.20;;;0.43;;
12181;SDS011;6154;51.550;12.138;2023-04-01T09:47:43;1.25;;;0.32;;
12181;SDS011;6154;51.550;12.138;2023-04-01T09:50:34;1.60;;;0.40;;
12181;SDS011;6154;51.550;12.138;2023-04-01T09:53:13;1.42;;;0.40;;
12181;SDS011;6154;51.550;12.138;2023-04-01T10:05:49;1.27;;;0.55;;
12181;SDS011;6154;51.550;12.138;2023-04-01T10:08:56;0.35;;;0.35;;
12181;SDS011;6154;51.550;12.138;2023-04-01T10:12:00;1.35;;;0.28;;
12181;SDS011;6154;51.550;12.138;2023-04-01T10:14:59;0.20;;;0.20;;
12181;SDS011;6154;51.550;12.138;2023-04-01T10:18:02;0.90;;;0.25;;
12181;SDS011;6154;51.550;12.138;2023-04-01T10:20:46;0.10;;;0.10;;
12181;SDS011;6154;51.550;12.138;2023-04-01T10:23:42;0.80;;;0.30;;
12181;SDS011;6154;51.550;12.138;2023-04-01T10:26:28;0.10;;;0.10;;
12181;SDS011;6154;51.550;12.138;2023-04-01T10:29:20;1.83;;;0.43;;
12181;SDS011;6154;51.550;12.138;2023-04-01T10:32:24;0.10;;;0.10;;
12181;SDS011;6154;51.550;12.138;2023-04-01T10:35:28;0.00;;;0.00;;
12181;SDS011;6154;51.550;12.138;2023-04-01T10:38:53;0.17;;;0.17;;
12181;SDS011;6154;51.550;12.138;2023-04-01T10:51:17;1.40;;;0.28;;
12181;SDS011;6154;51.550;12.138;2023-04-01T10:54:17;0.47;;;0.13;;
12181;SDS011;6154;51.550;12.138;2023-04-01T10:57:09;0.10;;;0.10;;
12181;SDS011;6154;51.550;12.138;2023-04-01T11:03:26;0.70;;;0.10;;
12181;SDS011;6154;51.550;12.138;2023-04-01T11:06:33;0.55;;;0.20;;
12181;SDS011;6154;51.550;12.138;2023-04-01T11:19:24;0.10;;;0.10;;
12181;SDS011;6154;51.550;12.138;2023-04-01T11:22:24;0.25;;;0.20;;
12181;SDS011;6154;51.550;12.138;2023-04-01T11:28:42;0.00;;;0.00;;
12181;SDS011;6154;51.550;12.138;2023-04-01T11:31:44;0.00;;;0.00;;
12181;SDS011;6154;51.550;12.138;2023-04-01T11:34:27;1.10;;;0.20;;
12181;SDS011;6154;51.550;12.138;2023-04-01T11:37:15;0.10;;;0.10;;
12181;SDS011;6154;51.550;12.138;2023-04-01T11:39:59;0.43;;;0.10;;
12181;SDS011;6154;51.550;12.138;2023-04-01T11:42:39;0.10;;;0.10;;
12181;SDS011;6154;51.550;12.138;2023-04-01T11:45:25;0.10;;;0.10;;
12181;SDS011;6154;51.550;12.138;2023-04-01T11:48:08;0.03;;;0.03;;
12181;SDS011;6154;51.550;12.138;2023-04-01T11:50:51;0.22;;;0.10;;
12181;SDS011;6154;51.550;12.138;2023-04-01T11:53:36;0.20;;;0.20;;
12181;SDS011;6154;51.550;12.138;2023-04-01T11:56:14;0.05;;;0.05;;
12181;SDS011;6154;51.550;12.138;2023-04-01T11:58:58;0.10;;;0.10;;
12181;SDS011;6154;51.550;12.138;2023-04-01T12:01:58;0.10;;;0.10;;
12181;SDS011;6154;51.550;12.138;2023-04-01T12:04:48;0.85;;;0.10;;
12181;SDS011;6154;51.550;12.138;2023-04-01T12:07:27;0.70;;;0.20;;
12181;SDS011;6154;51.550;12.138;2023-04-01T12:10:15;1.75;;;0.30;;
12181;SDS011;6154;51.550;12.138;2023-04-01T12:12:48;0.60;;;0.25;;
12181;SDS011;6154;51.550;12.138;2023-04-01T12:15:29;0.20;;;0.20;;
12181;SDS011;6154;51.550;12.138;2023-04-01T12:18:12;1.35;;;0.75;;
12181;SDS011;6154;51.550;12.138;2023-04-01T12:20:50;0.55;;;0.45;;
12181;SDS011;6154;51.550;12.138;2023-04-01T12:26:35;0.75;;;0.30;;
12181;SDS011;6154;51.550;12.138;2023-04-01T12:29:16;0.20;;;0.20;;
12181;SDS011;6154;51.550;12.138;2023-04-01T12:32:04;0.68;;;0.40;;
12181;SDS011;6154;51.550;12.138;2023-04-01T12:34:59;0.47;;;0.20;;
12181;SDS011;6154;51.550;12.138;2023-04-01T12:37:41;0.30;;;0.30;;
12181;SDS011;6154;51.550;12.138;2023-04-01T12:40:24;0.50;;;0.20;;
12181;SDS011;6154;51.550;12.138;2023-04-01T12:43:21;0.30;;;0.10;;
12181;SDS011;6154;51.550;12.138;2023-04-01T12:46:04;0.85;;;0.30;;
12181;SDS011;6154;51.550;12.138;2023-04-01T12:48:56;0.20;;;0.15;;
12181;SDS011;6154;51.550;12.138;2023-04-01T12:51:50;0.17;;;0.17;;
12181;SDS011;6154;51.550;12.138;2023-04-01T12:54:44;0.45;;;0.30;;
12181;SDS011;6154;51.550;12.138;2023-04-01T12:57:33;1.12;;;0.32;;
12181;SDS011;6154;51.550;12.138;2023-04-01T13:00:21;0.30;;;0.10;;
12181;SDS011;6154;51.550;12.138;2023-04-01T13:03:02;0.30;;;0.30;;
12181;SDS011;6154;51.550;12.138;2023-04-01T13:05:55;0.32;;;0.30;;
12181;SDS011;6154;51.550;12.138;2023-04-01T13:08:39;0.20;;;0.20;;
12181;SDS011;6154;51.550;12.138;2023-04-01T13:11:18;0.75;;;0.30;;
12181;SDS011;6154;51.550;12.138;2023-04-01T13:16:58;0.15;;;0.13;;
12181;SDS011;6154;51.550;12.138;2023-04-01T13:19:36;0.10;;;0.10;;
12181;SDS011;6154;51.550;12.138;2023-04-01T13:22:33;0.30;;;0.30;;
12181;SDS011;6154;51.550;12.138;2023-04-01T13:25:16;0.37;;;0.20;;
12181;SDS011;6154;51.550;12.138;2023-04-01T13:27:56;1.05;;;0.20;;
12181;SDS011;6154;51.550;12.138;2023-04-01T13:30:34;0.57;;;0.32;;
12181;SDS011;6154;51.550;12.138;2023-04-01T13:33:12;0.50;;;0.20;;
12181;SDS011;6154;51.550;12.138;2023-04-01T13:35:46;0.47;;;0.20;;
12181;SDS011;6154;51.550;12.138;2023-04-01T13:38:39;0.10;;;0.05;;
12181;SDS011;6154;51.550;12.138;2023-04-01T13:41:43;0.22;;;0.20;;
12181;SDS011;6154;51.550;12.138;2023-04-01T13:44:27;0.90;;;0.20;;
12181;SDS011;6154;51.550;12.138;2023-04-01T13:47:09;0.47;;;0.10;;
12181;SDS011;6154;51.550;12.138;2023-04-01T13:53:15;0.43;;;0.22;;
12181;SDS011;6154;51.550;12.138;2023-04-01T13:55:53;0.30;;;0.13;;
12181;SDS011;6154;51.550;12.138;2023-04-01T13:58:35;0.85;;;0.10;;
12181;SDS011;6154;51.550;12.138;2023-04-01T14:01:17;0.08;;;0.00;;
12181;SDS011;6154;51.550;12.138;2023-04-01T14:04:08;0.30;;;0.10;;
12181;SDS011;6154;51.550;12.138;2023-04-01T14:07:01;0.10;;;0.10;;
12181;SDS011;6154;51.550;12.138;2023-04-01T14:09:44;0.35;;;0.17;;
12181;SDS011;6154;51.550;12.138;2023-04-01T14:12:26;0.20;;;0.13;;
12181;SDS011;6154;51.550;12.138;2023-04-01T14:15:09;0.20;;;0.10;;
12181;SDS011;6154;51.550;12.138;2023-04-01T14:17:54;0.20;;;0.05;;
12181;SDS011;6154;51.550;12.138;2023-04-01T14:20:39;0.10;;;0.10;;
12181;SDS011;6154;51.550;12.138;2023-04-01T14:23:24;2.85;;;0.20;;
12181;SDS011;6154;51.550;12.138;2023-04-01T14:29:24;0.75;;;0.20;;
12181;SDS011;6154;51.550;12.138;2023-04-01T14:32:10;0.10;;;0.10;;
12181;SDS011;6154;51.550;12.138;2023-04-01T14:34:50;0.73;;;0.28;;
12181;SDS011;6154;51.550;12.138;2023-04-01T14:37:35;0.20;;;0.20;;
12181;SDS011;6154;51.550;12.138;2023-04-01T14:40:26;1.70;;;0.30;;
12181;SDS011;6154;51.550;12.138;2023-04-01T14:46:08;0.10;;;0.10;;
12181;SDS011;6154;51.550;12.138;2023-04-01T14:48:57;0.68;;;0.20;;
12181;SDS011;6154;51.550;12.138;2023-04-01T14:51:29;0.15;;;0.15;;
12181;SDS011;6154;51.550;12.138;2023-04-01T14:54:06;0.45;;;0.20;;
12181;SDS011;6154;51.550;12.138;2023-04-01T14:56:45;0.65;;;0.30;;
12181;SDS011;6154;51.550;12.138;2023-04-01T14:59:25;0.37;;;0.37;;
12181;SDS011;6154;51.550;12.138;2023-04-01T15:01:57;0.35;;;0.30;;
12181;SDS011;6154;51.550;12.138;2023-04-01T15:04:41;0.70;;;0.45;;
12181;SDS011;6154;51.550;12.138;2023-04-01T15:07:24;0.32;;;0.32;;
12181;SDS011;6154;51.550;12.138;2023-04-01T15:10:32;0.20;;;0.20;;
12181;SDS011;6154;51.550;12.138;2023-04-01T15:13:19;0.30;;;0.28;;
12181;SDS011;6154;51.550;12.138;2023-04-01T15:16:00;0.47;;;0.30;;
12181;SDS011;6154;51.550;12.138;2023-04-01T15:18:38;0.43;;;0.15;;
12181;SDS011;6154;51.550;12.138;2023-04-01T15:21:31;0.30;;;0.20;;
12181;SDS011;6154;51.550;12.138;2023-04-01T15:24:15;0.30;;;0.30;;
12181;SDS011;6154;51.550;12.138;2023-04-01T15:26:54;0.45;;;0.32;;
12181;SDS011;6154;51.550;12.138;2023-04-01T15:29:38;0.45;;;0.30;;
12181;SDS011;6154;51.550;12.138;2023-04-01T15:32:16;0.57;;;0.57;;
12181;SDS011;6154;51.550;12.138;2023-04-01T15:34:49;0.30;;;0.30;;
12181;SDS011;6154;51.550;12.138;2023-04-01T15:37:29;0.37;;;0.37;;
12181;SDS011;6154;51.550;12.138;2023-04-01T15:40:11;0.50;;;0.30;;
12181;SDS011;6154;51.550;12.138;2023-04-01T15:42:51;1.52;;;0.50;;
12181;SDS011;6154;51.550;12.138;2023-04-01T15:45:31;0.90;;;0.37;;
12181;SDS011;6154;51.550;12.138;2023-04-01T15:51:02;1.00;;;0.35;;
12181;SDS011;6154;51.550;12.138;2023-04-01T15:56:41;2.22;;;0.60;;
12181;SDS011;6154;51.550;12.138;2023-04-01T15:59:22;0.88;;;0.55;;
12181;SDS011;6154;51.550;12.138;2023-04-01T16:02:07;0.80;;;0.50;;
12181;SDS011;6154;51.550;12.138;2023-04-01T16:04:51;1.02;;;0.40;;
12181;SDS011;6154;51.550;12.138;2023-04-01T16:10:31;0.20;;;0.20;;
12181;SDS011;6154;51.550;12.138;2023-04-01T16:13:14;1.27;;;0.40;;
12181;SDS011;6154;51.550;12.138;2023-04-01T16:15:54;0.80;;;0.50;;
12181;SDS011;6154;51.550;12.138;2023-04-01T16:18:32;0.43;;;0.43;;
12181;SDS011;6154;51.550;12.138;2023-04-01T16:21:27;1.42;;;0.65;;
12181;SDS011;6154;51.550;12.138;2023-04-01T16:24:05;1.02;;;0.62;;
12181;SDS011;6154;51.550;12.138;2023-04-01T16:26:45;0.40;;;0.40;;
12181;SDS011;6154;51.550;12.138;2023-04-01T16:29:20;0.90;;;0.47;;
12181;SDS011;6154;51.550;12.138;2023-04-01T16:31:55;2.60;;;0.80;;
12181;SDS011;6154;51.550;12.138;2023-04-01T16:34:43;1.25;;;0.75;;
12181;SDS011;6154;51.550;12.138;2023-04-01T16:37:16;1.37;;;0.45;;
12181;SDS011;6154;51.550;12.138;2023-04-01T16:39:52;1.05;;;0.88;;
12181;SDS011;6154;51.550;12.138;2023-04-01T16:42:38;1.67;;;1.20;;
12181;SDS011;6154;51.550;12.138;2023-04-01T16:45:19;3.53;;;0.70;;
12181;SDS011;6154;51.550;12.138;2023-04-01T16:47:57;0.57;;;0.50;;
12181;SDS011;6154;51.550;12.138;2023-04-01T16:50:39;0.60;;;0.50;;
12181;SDS011;6154;51.550;12.138;2023-04-01T16:53:15;0.50;;;0.50;;
12181;SDS011;6154;51.550;12.138;2023-04-01T16:55:47;0.45;;;0.45;;
12181;SDS011;6154;51.550;12.138;2023-04-01T16:58:24;0.62;;;0.50;;
12181;SDS011;6154;51.550;12.138;2023-04-01T17:00:58;0.37;;;0.32;;
12181;SDS011;6154;51.550;12.138;2023-04-01T17:03:32;0.45;;;0.45;;
12181;SDS011;6154;51.550;12.138;2023-04-01T17:06:18;0.62;;;0.62;;
12181;SDS011;6154;51.550;12.138;2023-04-01T17:11:55;0.30;;;0.30;;
12181;SDS011;6154;51.550;12.138;2023-04-01T17:14:31;0.30;;;0.30;;
12181;SDS011;6154;51.550;12.138;2023-04-01T17:17:10;2.37;;;0.40;;
12181;SDS011;6154;51.550;12.138;2023-04-01T17:19:56;0.50;;;0.40;;
12181;SDS011;6154;51.550;12.138;2023-04-01T17:22:44;0.13;;;0.13;;
12181;SDS011;6154;51.550;12.138;2023-04-01T17:25:27;0.37;;;0.30;;
12181;SDS011;6154;51.550;12.138;2023-04-01T17:28:10;0.22;;;0.22;;